Time;durP1;ratioP1;P1;durP2;ratioP2;P2;SDS_P1;SDS_P2;PMS_P1;PMS_P2;Temp;Humidity;BMP_temperature;BMP_pressure;BME280_temperature;BME280_humidity;BME280_pressure;Samples;Min_cycle;Max_cycle;Signal;HPM_P1;HPM_P2
2022/04/22 00:00:53;;;;;;;;;;;;;;;10.44;48.87;98974.63;4480808;32;33918;-93
2022/04/22 00:03:21;;;;;;;;;;;;;;;10.46;48.82;98975.44;4470996;32;33952;-92
2022/04/22 00:05:50;;;;;;;;;;;;;;;10.41;49.05;98970.38;4469420;32;33994;-90
2022/04/22 00:08:21;;;;;;;;;;;;;;;10.40;49.35;98973.00;4477102;32;32722;-91
2022/04/22 00:13:37;;;;;;;;;;;;;;;10.44;49.58;98964.28;4476474;32;34764;-92
2022/04/22 00:16:06;;;;;;;;;;;;;;;10.52;49.01;98959.72;4480732;32;36624;-91
2022/04/22 00:18:35;;;;;;;;;;;;;;;10.66;48.81;98951.63;4482845;32;32936;-93
2022/04/22 00:21:04;;;;;;;;;;;;;;;10.73;48.64;98947.97;4471019;32;33146;-92
2022/04/22 00:23:36;;;;;;;;;;;;;;;10.80;48.49;98948.66;4480909;32;34729;-88
2022/04/22 00:26:05;;;;;;;;;;;;;;;10.95;48.07;98944.81;4477528;32;34643;-88
2022/04/22 00:28:33;;;;;;;;;;;;;;;10.88;48.42;98944.13;4471974;32;33887;-91
2022/04/22 00:31:03;;;;;;;;;;;;;;;11.00;47.87;98954.19;4471062;32;34984;-88
2022/04/22 00:33:32;;;;;;;;;;;;;;;11.03;47.15;98946.31;4456492;32;33397;-89
2022/04/22 00:36:00;;;;;;;;;;;;;;;11.07;47.44;98939.31;4470662;32;34025;-90
2022/04/22 00:38:29;;;;;;;;;;;;;;;11.08;47.46;98943.59;4483884;32;33361;-89
2022/04/22 00:40:57;;;;;;;;;;;;;;;10.95;47.60;98934.44;4475111;32;35304;-89
2022/04/22 00:43:26;;;;;;;;;;;;;;;11.21;46.86;98931.09;4472437;32;34060;-88
2022/04/22 00:45:55;;;;;;;;;;;;;;;11.22;46.77;98925.03;4479627;32;33720;-89
2022/04/22 00:48:25;;;;;;;;;;;;;;;11.32;46.65;98923.88;4476427;32;33978;-90
2022/04/22 00:50:53;;;;;;;;;;;;;;;11.28;47.14;98914.47;4469522;32;34114;-91
2022/04/22 00:53:22;;;;;;;;;;;;;;;11.26;47.37;98922.31;4467014;32;34024;-89
2022/04/22 00:55:50;;;;;;;;;;;;;;;11.32;47.48;98916.09;4474011;32;33571;-89
2022/04/22 00:58:19;;;;;;;;;;;;;;;11.30;47.61;98908.34;4469693;32;32870;-91
2022/04/22 01:00:47;;;;;;;;;;;;;;;11.30;47.69;98904.88;4465065;32;33810;-91
2022/04/22 01:03:17;;;;;;;;;;;;;;;11.20;48.01;98917.28;4464300;32;32792;-91
2022/04/22 01:11:25;;;;;;;;;;;;;;;11.25;47.75;98897.22;4467168;32;34460;-91
2022/04/22 01:13:54;;;;;;;;;;;;;;;11.25;47.78;98896.37;4465339;32;33409;-89
2022/04/22 01:16:22;;;;;;;;;;;;;;;11.17;47.83;98900.97;4479102;32;33333;-90
2022/04/22 01:18:51;;;;;;;;;;;;;;;10.95;47.62;98890.31;4472629;32;32945;-90
2022/04/22 01:21:21;;;;;;;;;;;;;;;11.28;46.74;98888.50;4467039;32;34772;-90
2022/04/22 01:23:50;;;;;;;;;;;;;;;11.17;47.21;98882.78;4464942;32;34955;-89
2022/04/22 01:26:18;;;;;;;;;;;;;;;11.15;46.91;98889.75;4475170;32;33786;-88
2022/04/22 01:28:47;;;;;;;;;;;;;;;11.34;46.87;98882.31;4469640;32;34062;-89
2022/04/22 01:31:15;;;;;;;;;;;;;;;11.49;46.46;98877.47;4464005;32;33994;-90
2022/04/22 01:33:44;;;;;;;;;;;;;;;11.29;47.35;98877.25;4463550;32;35069;-93
2022/04/22 01:36:12;;;;;;;;;;;;;;;11.49;47.02;98869.69;4466490;32;34101;-91
2022/04/22 01:38:42;;;;;;;;;;;;;;;11.58;46.77;98865.13;4466540;32;33878;-89
2022/04/22 01:41:11;;;;;;;;;;;;;;;11.54;47.00;98865.19;4481668;32;34218;-90
2022/04/22 01:43:39;;;;;;;;;;;;;;;11.66;46.91;98865.75;4480471;32;34470;-89
2022/04/22 01:46:07;;;;;;;;;;;;;;;11.66;46.61;98863.97;4468728;32;34660;-88
2022/04/22 01:48:36;;;;;;;;;;;;;;;11.57;46.72;98853.88;4477754;32;33367;-93
2022/04/22 01:51:05;;;;;;;;;;;;;;;11.63;46.23;98845.91;4465472;32;34938;-91
2022/04/22 01:53:33;;;;;;;;;;;;;;;11.38;46.83;98843.22;4468668;32;34278;-91
2022/04/22 01:56:08;;;;;;;;;;;;;;;11.52;46.61;98833.25;4470832;32;33610;-91
2022/04/22 01:58:39;;;;;;;;;;;;;;;11.66;45.95;98829.38;4471768;32;33164;-92
2022/04/22 02:01:07;;;;;;;;;;;;;;;11.64;46.16;98825.97;4467864;32;33892;-93
2022/04/22 02:03:36;;;;;;;;;;;;;;;11.48;46.71;98829.03;4462558;32;34110;-93
2022/04/22 02:06:05;;;;;;;;;;;;;;;11.80;44.80;98826.34;4467224;32;34087;-91
2022/04/22 02:08:36;;;;;;;;;;;;;;;11.77;45.46;98827.28;4470880;32;33461;-93
2022/04/22 02:11:04;;;;;;;;;;;;;;;11.54;45.57;98825.41;4465488;32;33765;-94
2022/04/22 02:13:36;;;;;;;;;;;;;;;11.52;45.87;98832.38;4468853;32;33969;-90
2022/04/22 02:16:06;;;;;;;;;;;;;;;11.45;46.28;98826.56;4472945;32;33944;-90
2022/04/22 02:18:36;;;;;;;;;;;;;;;11.58;45.57;98818.38;4467602;32;33965;-91
2022/04/22 02:21:06;;;;;;;;;;;;;;;11.66;44.89;98818.97;4471431;32;34716;-91
2022/04/22 02:23:34;;;;;;;;;;;;;;;11.52;45.72;98819.41;4472651;32;33933;-91
2022/04/22 02:26:03;;;;;;;;;;;;;;;11.27;46.76;98814.97;4465653;32;33789;-91
2022/04/22 02:28:33;;;;;;;;;;;;;;;11.46;46.07;98817.84;4471132;32;33124;-91
2022/04/22 02:31:02;;;;;;;;;;;;;;;11.55;45.71;98824.53;4467391;32;34001;-93
2022/04/22 02:33:31;;;;;;;;;;;;;;;11.54;45.49;98821.03;4465362;32;33912;-92
2022/04/22 02:36:00;;;;;;;;;;;;;;;11.55;45.89;98816.72;4467275;32;34747;-90
2022/04/22 02:38:29;;;;;;;;;;;;;;;11.41;46.39;98822.34;4463997;32;33415;-90
2022/04/22 02:46:31;;;;;;;;;;;;;;;11.36;46.38;98805.22;4468453;32;33898;-92
2022/04/22 02:49:00;;;;;;;;;;;;;;;11.27;46.15;98798.53;4468512;32;32874;-91
2022/04/22 02:51:29;;;;;;;;;;;;;;;11.20;46.48;98794.41;4473424;32;33801;-91
2022/04/22 02:53:57;;;;;;;;;;;;;;;11.39;45.81;98787.78;4463117;32;35006;-91
2022/04/22 02:56:28;;;;;;;;;;;;;;;11.52;45.45;98789.09;4467836;32;33093;-93
2022/04/22 02:58:57;;;;;;;;;;;;;;;11.69;45.33;98795.50;4470854;32;34058;-90
2022/04/22 03:01:26;;;;;;;;;;;;;;;11.58;45.96;98787.22;4463030;32;34115;-91
2022/04/22 03:03:55;;;;;;;;;;;;;;;11.54;46.35;98782.09;4476142;32;33864;-89
2022/04/22 03:06:26;;;;;;;;;;;;;;;11.70;45.74;98781.63;4465753;32;34555;-91
2022/04/22 03:08:54;;;;;;;;;;;;;;;11.72;45.54;98783.25;4477361;32;33026;-93
2022/04/22 03:11:23;;;;;;;;;;;;;;;11.68;45.86;98786.00;4468072;32;33362;-92
2022/04/22 03:13:51;;;;;;;;;;;;;;;11.73;45.88;98771.97;4472980;32;33955;-94
2022/04/22 03:16:21;;;;;;;;;;;;;;;11.50;46.28;98779.63;4470082;32;34147;-93
2022/04/22 03:18:50;;;;;;;;;;;;;;;11.59;46.14;98774.16;4476234;32;32371;-90
2022/04/22 03:21:18;;;;;;;;;;;;;;;11.62;45.87;98768.00;4471067;32;34542;-91
2022/04/22 03:23:48;;;;;;;;;;;;;;;11.76;45.23;98760.63;4463411;32;34965;-92
2022/04/22 03:26:16;;;;;;;;;;;;;;;11.74;45.23;98760.69;4473214;32;33690;-89
2022/04/22 03:28:45;;;;;;;;;;;;;;;11.65;45.54;98758.37;4469832;32;33216;-93
2022/04/22 03:31:14;;;;;;;;;;;;;;;11.70;45.44;98760.84;4470940;32;34839;-92
2022/04/22 03:33:44;;;;;;;;;;;;;;;11.82;45.40;98762.19;4469108;32;33813;-91
2022/04/22 03:36:13;;;;;;;;;;;;;;;11.82;45.04;98755.22;4470439;32;35247;-90
2022/04/22 03:38:43;;;;;;;;;;;;;;;11.67;45.84;98755.72;4472508;32;33207;-92
2022/04/22 03:41:13;;;;;;;;;;;;;;;11.89;44.99;98743.75;4473873;32;34743;-91
2022/04/22 03:43:42;;;;;;;;;;;;;;;11.96;44.77;98757.41;4471966;32;34253;-91
2022/04/22 03:46:10;;;;;;;;;;;;;;;11.97;44.48;98753.88;4476804;32;34064;-90
2022/04/22 03:48:39;;;;;;;;;;;;;;;11.84;45.01;98753.44;4468950;32;33983;-90
2022/04/22 03:51:09;;;;;;;;;;;;;;;11.82;44.75;98752.63;4467821;32;33989;-90
2022/04/22 03:53:39;;;;;;;;;;;;;;;11.88;44.89;98757.63;4470515;32;34210;-93
2022/04/22 03:58:54;;;;;;;;;;;;;;;11.93;44.86;98755.72;4477101;32;34040;-91
2022/04/22 04:01:22;;;;;;;;;;;;;;;11.94;44.75;98757.44;4467058;32;33899;-92
2022/04/22 04:03:51;;;;;;;;;;;;;;;12.09;44.41;98753.47;4479469;32;34395;-93
2022/04/22 04:06:21;;;;;;;;;;;;;;;11.99;44.83;98751.25;4480255;32;32613;-91
2022/04/22 04:15:57;;;;;;;;;;;;;;;12.11;44.21;98751.66;4476677;32;33241;-90
2022/04/22 04:17:10;;;;;;;;;;;;;;;12.14;44.26;98746.34;4471582;32;34082;-92
2022/04/22 04:25:12;;;;;;;;;;;;;;;12.15;44.32;98749.81;4466490;32;33064;-92
2022/04/22 04:27:41;;;;;;;;;;;;;;;12.19;44.36;98756.59;4464520;32;33654;-92
2022/04/22 04:30:09;;;;;;;;;;;;;;;12.17;44.92;98748.84;4455576;32;32573;-90
2022/04/22 04:32:38;;;;;;;;;;;;;;;12.13;44.60;98746.44;4465856;32;33353;-91
2022/04/22 04:35:07;;;;;;;;;;;;;;;12.17;44.47;98758.41;4464793;32;33066;-92
2022/04/22 04:37:41;;;;;;;;;;;;;;;12.21;44.31;98757.41;4480681;32;34659;-90
2022/04/22 04:40:10;;;;;;;;;;;;;;;11.99;44.70;98753.84;4477743;32;33143;-92
2022/04/22 04:42:38;;;;;;;;;;;;;;;11.47;45.81;98748.56;4472762;32;34556;-90
2022/04/22 04:45:07;;;;;;;;;;;;;;;12.14;43.84;98759.34;4475036;32;34164;-91
2022/04/22 04:47:39;;;;;;;;;;;;;;;11.97;44.11;98755.66;4469587;32;33902;-91
2022/04/22 04:50:08;;;;;;;;;;;;;;;11.91;44.35;98748.88;4466580;32;33262;-93
2022/04/22 04:52:37;;;;;;;;;;;;;;;12.12;43.58;98752.50;4473654;31;34078;-90
2022/04/22 04:55:08;;;;;;;;;;;;;;;12.21;43.60;98760.00;4488897;31;34370;-92
2022/04/22 04:57:39;;;;;;;;;;;;;;;12.12;44.14;98757.72;4481735;32;34713;-91
2022/04/22 05:00:13;;;;;;;;;;;;;;;12.02;44.64;98757.19;4465300;32;32991;-90
2022/04/22 05:02:41;;;;;;;;;;;;;;;12.02;44.75;98757.19;4466911;32;34085;-91
2022/04/22 05:05:11;;;;;;;;;;;;;;;12.07;45.27;98757.03;4476851;32;34317;-90
2022/04/22 05:07:49;;;;;;;;;;;;;;;12.09;45.62;98763.03;4462673;32;32580;-91
2022/04/22 05:10:19;;;;;;;;;;;;;;;11.81;45.97;98773.44;4481317;32;33789;-90
2022/04/22 05:12:48;;;;;;;;;;;;;;;11.60;45.80;98770.66;4474870;32;34587;-90
2022/04/22 05:15:18;;;;;;;;;;;;;;;12.23;45.37;98776.41;4477163;32;34973;-88
2022/04/22 05:17:47;;;;;;;;;;;;;;;12.06;45.44;98769.19;4478630;32;33530;-92
2022/04/22 05:20:16;;;;;;;;;;;;;;;12.00;45.36;98774.56;4479369;32;33251;-87
2022/04/22 05:22:45;;;;;;;;;;;;;;;12.02;44.37;98777.12;4478826;32;34008;-90
2022/04/22 05:25:14;;;;;;;;;;;;;;;11.88;45.69;98780.19;4485143;32;34195;-90
2022/04/22 05:27:43;;;;;;;;;;;;;;;12.13;44.43;98780.22;4474134;32;33841;-91
2022/04/22 05:32:59;;;;;;;;;;;;;;;11.45;45.90;98761.63;4473005;32;33930;-90
2022/04/22 05:35:28;;;;;;;;;;;;;;;11.50;45.95;98762.31;4475879;32;34186;-90
2022/04/22 05:37:57;;;;;;;;;;;;;;;11.03;47.16;98772.41;4484588;32;32458;-92
2022/04/22 05:40:27;;;;;;;;;;;;;;;11.55;45.92;98775.16;4483518;32;34376;-94
2022/04/22 05:42:56;;;;;;;;;;;;;;;10.91;47.39;98772.78;4469487;32;34940;-92
2022/04/22 05:45:26;;;;;;;;;;;;;;;10.95;46.94;98776.97;4464655;32;34129;-93
2022/04/22 05:47:56;;;;;;;;;;;;;;;11.27;46.50;98764.78;4462682;32;34657;-91
2022/04/22 05:50:25;;;;;;;;;;;;;;;11.17;46.54;98763.38;4469479;32;33200;-90
2022/04/22 05:52:54;;;;;;;;;;;;;;;10.67;47.59;98767.38;4481546;32;34388;-91
2022/04/22 05:55:23;;;;;;;;;;;;;;;11.23;46.61;98752.78;4480243;32;34212;-90
2022/04/22 05:57:52;;;;;;;;;;;;;;;10.58;48.05;98754.69;4479271;32;34684;-89
2022/04/22 06:00:23;;;;;;;;;;;;;;;10.42;48.09;98754.28;4477960;32;33059;-89
2022/04/22 06:02:52;;;;;;;;;;;;;;;11.06;46.94;98758.50;4477668;32;34513;-92
2022/04/22 06:05:22;;;;;;;;;;;;;;;11.50;46.01;98753.66;4482236;32;33812;-93
2022/04/22 06:10:31;;;;;;;;;;;;;;;11.63;45.77;98752.38;4479191;32;33957;-89
2022/04/22 06:10:40;;;;;;;;;;;;;;;11.35;45.82;98751.56;4477355;32;32921;-91
2022/04/22 06:13:08;;;;;;;;;;;;;;;11.11;46.46;98743.63;4475049;32;33747;-90
2022/04/22 06:15:40;;;;;;;;;;;;;;;10.25;47.71;98738.28;4478231;32;33787;-90
2022/04/22 06:18:09;;;;;;;;;;;;;;;10.90;47.08;98747.72;4464829;32;34138;-91
2022/04/22 06:20:37;;;;;;;;;;;;;;;10.79;47.17;98750.63;4468914;32;32451;-90
2022/04/22 06:23:06;;;;;;;;;;;;;;;11.08;46.40;98741.97;4463850;32;33715;-93
2022/04/22 06:25:35;;;;;;;;;;;;;;;11.05;46.68;98744.66;4464336;32;34165;-92
2022/04/22 06:28:05;;;;;;;;;;;;;;;10.79;47.13;98731.62;4464406;32;33944;-91
2022/04/22 06:30:34;;;;;;;;;;;;;;;11.11;46.72;98730.63;4464100;32;33027;-91
2022/04/22 06:33:05;;;;;;;;;;;;;;;11.37;45.79;98740.22;4483764;32;34854;-91
2022/04/22 06:35:34;;;;;;;;;;;;;;;11.23;46.15;98732.00;4480074;32;34239;-89
2022/04/22 06:38:03;;;;;;;;;;;;;;;10.65;47.45;98738.03;4479546;32;34832;-89
2022/04/22 06:46:12;;;;;;;;;;;;;;;11.08;46.46;98722.97;4415192;32;34145;-90
2022/04/22 06:48:43;;;;;;;;;;;;;;;11.20;46.34;98727.78;4416893;32;33560;-92
2022/04/22 06:51:13;;;;;;;;;;;;;;;11.59;45.12;98721.34;4420156;32;33108;-90
2022/04/22 06:53:42;;;;;;;;;;;;;;;11.70;45.12;98733.09;4415371;32;34319;-90
2022/04/22 06:56:13;;;;;;;;;;;;;;;11.73;45.04;98732.97;4415272;32;35154;-89
2022/04/22 06:58:43;;;;;;;;;;;;;;;11.35;45.55;98729.03;4415418;32;33854;-88
2022/04/22 07:01:11;;;;;;;;;;;;;;;11.43;45.64;98727.06;4415189;32;33349;-92
2022/04/22 07:04:01;;;;;;;;;;;;;;;11.77;44.46;98719.87;4415414;32;33522;-92
2022/04/22 07:06:30;;;;;;;;;;;;;;;11.30;45.95;98723.13;4423322;32;34596;-89
2022/04/22 07:08:59;;;;;;;;;;;;;;;11.69;44.94;98726.22;4417141;32;33917;-89
2022/04/22 07:11:28;;;;;;;;;;;;;;;11.85;44.49;98731.72;4414977;32;33149;-89
2022/04/22 07:13:57;;;;;;;;;;;;;;;12.19;44.08;98733.19;4415365;32;33912;-91
2022/04/22 07:16:26;;;;;;;;;;;;;;;12.44;43.53;98735.75;4415154;32;33696;-91
2022/04/22 07:18:59;;;;;;;;;;;;;;;12.38;43.70;98729.03;4419871;32;33864;-90
2022/04/22 07:21:29;;;;;;;;;;;;;;;12.50;43.18;98735.56;4425589;32;33896;-89
2022/04/22 07:23:59;;;;;;;;;;;;;;;12.40;44.42;98736.81;4463765;32;33907;-88
2022/04/22 07:26:27;;;;;;;;;;;;;;;12.24;46.26;98738.25;4468758;32;34774;-88
2022/04/22 07:28:57;;;;;;;;;;;;;;;12.34;46.69;98742.22;4454630;32;34155;-88
2022/04/22 07:31:28;;;;;;;;;;;;;;;12.15;49.15;98737.66;4467460;32;32937;-89
2022/04/22 07:33:56;;;;;;;;;;;;;;;11.21;51.46;98723.41;4468199;32;34494;-90
2022/04/22 07:36:25;;;;;;;;;;;;;;;11.89;50.89;98741.16;4463098;32;33934;-90
2022/04/22 07:39:06;;;;;;;;;;;;;;;11.63;51.32;98723.81;4463205;32;34528;-89
2022/04/22 07:41:36;;;;;;;;;;;;;;;11.80;51.67;98722.41;4466165;32;34007;-90
2022/04/22 07:46:58;;;;;;;;;;;;;;;11.36;54.12;98725.56;4466315;32;34159;-87
2022/04/22 07:49:29;;;;;;;;;;;;;;;10.92;55.27;98720.00;4473751;32;34061;-85
2022/04/22 07:51:58;;;;;;;;;;;;;;;10.88;56.67;98718.38;4476918;32;33376;-87
2022/04/22 07:54:29;;;;;;;;;;;;;;;11.46;55.61;98723.50;4463738;32;33726;-87
2022/04/22 07:56:57;;;;;;;;;;;;;;;10.99;56.76;98715.44;4464939;32;34118;-87
2022/04/22 07:59:28;;;;;;;;;;;;;;;11.54;56.88;98721.50;4465091;32;33990;-88
2022/04/22 08:01:58;;;;;;;;;;;;;;;12.09;56.07;98724.03;4470063;32;34150;-90
2022/04/22 08:04:28;;;;;;;;;;;;;;;11.82;55.94;98724.03;4468079;32;33735;-91
2022/04/22 08:06:57;;;;;;;;;;;;;;;11.71;55.85;98720.94;4480662;32;34962;-88
2022/04/22 08:09:47;;;;;;;;;;;;;;;11.97;55.01;98722.69;4481151;32;34362;-91
2022/04/22 08:12:16;;;;;;;;;;;;;;;11.66;56.75;98728.03;4480817;32;32943;-90
2022/04/22 08:14:45;;;;;;;;;;;;;;;12.00;56.06;98726.94;4481044;32;34778;-90
2022/04/22 08:17:15;;;;;;;;;;;;;;;11.96;57.09;98723.62;4485500;32;33824;-88
2022/04/22 08:19:46;;;;;;;;;;;;;;;11.71;57.86;98713.16;4481035;32;34092;-90
2022/04/22 08:22:15;;;;;;;;;;;;;;;11.74;58.87;98718.22;4480955;32;33152;-90
2022/04/22 08:24:43;;;;;;;;;;;;;;;11.50;60.07;98712.97;4480693;32;34413;-90
2022/04/22 08:27:15;;;;;;;;;;;;;;;11.60;61.62;98725.63;4480781;32;34272;-90
2022/04/22 08:29:45;;;;;;;;;;;;;;;11.50;61.45;98718.16;4463377;32;34273;-90
2022/04/22 08:32:14;;;;;;;;;;;;;;;11.15;63.32;98710.66;4464068;32;33840;-88
2022/04/22 08:34:43;;;;;;;;;;;;;;;10.50;64.20;98717.75;4481075;32;34712;-89
2022/04/22 08:37:11;;;;;;;;;;;;;;;10.23;67.04;98708.97;4480144;32;35230;-88
2022/04/22 08:39:40;;;;;;;;;;;;;;;10.15;68.56;98713.53;4480834;32;34363;-89
2022/04/22 08:42:08;;;;;;;;;;;;;;;9.77;70.08;98708.44;4480681;32;33702;-89
2022/04/22 08:44:58;;;;;;;;;;;;;;;9.94;70.04;98700.25;4485590;32;33793;-90
2022/04/22 08:50:29;;;;;;;;;;;;;;;10.06;71.17;98687.84;4430471;32;34809;-90
2022/04/22 08:52:58;;;;;;;;;;;;;;;9.87;71.79;98684.91;4417528;32;34771;-90
2022/04/22 08:55:36;;;;;;;;;;;;;;;10.36;70.82;98684.41;4430002;32;34455;-89
2022/04/22 08:58:11;;;;;;;;;;;;;;;10.70;70.73;98686.03;4418965;32;34643;-89
2022/04/22 09:00:45;;;;;;;;;;;;;;;11.01;70.59;98678.16;4428376;32;34964;-89
2022/04/22 09:03:13;;;;;;;;;;;;;;;10.81;71.31;98667.56;4423259;32;34228;-89
2022/04/22 09:05:46;;;;;;;;;;;;;;;10.47;73.66;98671.16;4403489;32;34719;-90
2022/04/22 09:08:17;;;;;;;;;;;;;;;10.88;72.95;98664.72;4415782;32;34999;-90
2022/04/22 09:10:52;;;;;;;;;;;;;;;10.17;76.19;98658.16;4403335;32;33578;-89
2022/04/22 09:13:30;;;;;;;;;;;;;;;10.14;76.59;98650.44;4416466;32;33190;-89
2022/04/22 09:16:00;;;;;;;;;;;;;;;10.67;76.34;98648.06;4403445;32;33161;-89
2022/04/22 09:18:39;;;;;;;;;;;;;;;10.53;76.80;98649.38;4420489;32;35069;-88
2022/04/22 09:21:14;;;;;;;;;;;;;;;10.02;77.42;98651.63;4419854;32;33216;-89
2022/04/22 09:23:45;;;;;;;;;;;;;;;10.03;77.70;98642.16;4478560;32;33225;-89
2022/04/22 09:26:21;;;;;;;;;;;;;;;10.33;77.07;98637.84;4480410;32;33881;-88
2022/04/22 09:28:57;;;;;;;;;;;;;;;9.83;77.90;98633.19;4480820;32;34492;-89
2022/04/22 09:31:27;;;;;;;;;;;;;;;10.41;76.63;98619.47;4480473;32;34120;-89
2022/04/22 09:33:57;;;;;;;;;;;;;;;9.85;77.83;98624.50;4485044;32;33348;-89
2022/04/22 09:44:50;;;;;;;;;;;;;;;10.46;76.40;98605.50;4470257;32;33328;-90
2022/04/22 09:47:21;;;;;;;;;;;;;;;10.23;77.38;98602.69;4478785;32;34698;-89
2022/04/22 09:49:49;;;;;;;;;;;;;;;10.31;77.57;98607.69;4473105;32;33571;-89
2022/04/22 09:52:24;;;;;;;;;;;;;;;10.51;78.55;98607.09;4484876;32;34021;-89
2022/04/22 09:54:57;;;;;;;;;;;;;;;10.69;76.66;98603.94;4480425;32;33408;-89
2022/04/22 10:04:33;;;;;;;;;;;;;;;11.05;75.51;98609.72;4375190;32;33507;-90
2022/04/22 10:07:06;;;;;;;;;;;;;;;10.68;75.64;98623.00;4369054;32;32988;-91
2022/04/22 10:09:40;;;;;;;;;;;;;;;10.60;76.18;98612.84;4371338;32;33444;-92
2022/04/22 13:39:51;;;;;;;;;;;;;;;13.29;45.67;98402.69;4130831;34;36254;-89
2022/04/22 13:53:41;;;;;;;;;;;;;;;;;;;;;
2022/04/22 14:07:09;;;;;;;;;;;;;;;13.90;45.08;98388.59;4130761;34;34971;-92
2022/04/22 14:10:27;;;;;;;;;;;;;;;13.79;44.81;98377.81;4160757;34;34652;-89
2022/04/22 14:19:43;;;;;;;;;;;;;;;13.84;44.44;98378.44;4146978;34;34429;-91
2022/04/22 14:26:30;;;;;;;;;;;;;;;13.99;45.15;98385.56;4155232;34;34662;-91
2022/04/22 14:29:50;;;;;;;;;;;;;;;14.14;44.83;98383.13;4145316;34;35722;-91
2022/04/22 14:36:08;;;;;;;;;;;;;;;14.17;46.17;98385.56;4147344;34;33485;-88
2022/04/22 15:04:02;;;;;;;;;;;;;;;13.17;46.69;98367.59;4032482;35;33608;-89
2022/04/22 15:06:48;;;;;;;;;;;;;;;13.91;44.79;98366.81;4037785;35;36118;-91
2022/04/22 15:10:08;;;;;;;;;;;;;;;13.50;45.59;98348.75;4049324;35;35259;-91
2022/04/22 15:13:13;;;;;;;;;;;;;;;13.49;45.17;98336.66;4067299;35;34870;-89
2022/04/22 15:25:55;;;;;;;;;;;;;;;13.77;43.65;98320.56;4102515;34;35078;-90
2022/04/22 15:28:47;;;;;;;;;;;;;;;13.34;45.37;98314.78;4092123;35;32773;-93
2022/04/22 15:31:40;;;;;;;;;;;;;;;13.31;44.96;98320.09;4084458;34;33932;-88
2022/04/22 15:35:03;;;;;;;;;;;;;;;13.66;44.46;98318.47;4146615;34;33152;-89
2022/04/22 15:37:31;;;;;;;;;;;;;;;13.36;44.24;98318.16;4153212;34;35346;-90
2022/04/22 15:40:03;;;;;;;;;;;;;;;13.18;45.38;98313.75;4160010;34;33332;-92
2022/04/22 15:42:40;;;;;;;;;;;;;;;13.05;45.59;98310.00;4164247;34;34279;-91
2022/04/22 15:45:47;;;;;;;;;;;;;;;13.23;45.46;98312.62;4151576;34;34481;-90
2022/04/22 19:26:45;;;;;;;;;;;;;;;11.86;69.78;98429.41;4655890;28;19995;-89
2022/04/22 20:10:59;;;;;;;;;;;;;;;11.04;73.01;98365.78;4269462;28;20001;-88
2022/04/22 20:13:28;;;;;;;;;;;;;;;10.90;73.79;98374.09;4195023;34;33481;-89
2022/04/22 20:15:57;;;;;;;;;;;;;;;11.16;71.59;98370.53;4186864;34;33718;-90
2022/04/22 20:18:25;;;;;;;;;;;;;;;11.06;71.29;98375.22;4187451;34;33879;-89
2022/04/22 20:20:55;;;;;;;;;;;;;;;11.01;70.73;98374.53;4188182;34;34319;-89
2022/04/22 20:23:23;;;;;;;;;;;;;;;10.98;71.61;98385.03;4183244;34;33015;-90
2022/04/22 20:25:52;;;;;;;;;;;;;;;10.74;73.06;98378.97;4193015;34;34100;-90
2022/04/22 20:28:30;;;;;;;;;;;;;;;10.96;72.29;98379.03;4196614;34;33689;-91
2022/04/22 22:16:13;;;;;;;;;;;;;;;10.99;75.58;98404.03;4724967;28;20014;-91
2022/04/22 22:19:10;;;;;;;;;;;;;;;10.41;77.54;98401.69;4185423;34;35430;-90
2022/04/22 22:36:32;;;;;;;;;;;;;;;10.95;75.01;98400.72;4095411;34;34992;-90
2022/04/22 22:49:33;;;;;;;;;;;;;;;10.74;75.15;98411.84;4066993;35;36674;-90
2022/04/22 22:52:15;;;;;;;;;;;;;;;11.11;73.90;98408.78;4068421;35;33318;-90
2022/04/22 22:54:43;;;;;;;;;;;;;;;10.96;74.73;98402.41;4067021;35;34014;-90
2022/04/22 22:57:12;;;;;;;;;;;;;;;11.42;72.52;98400.72;4066412;35;34825;-90
2022/04/22 22:59:41;;;;;;;;;;;;;;;10.96;73.96;98398.97;4064258;35;34866;-90
2022/04/22 23:02:09;;;;;;;;;;;;;;;10.27;76.60;98402.13;4065868;35;34239;-89
2022/04/22 23:04:38;;;;;;;;;;;;;;;10.08;77.38;98404.47;4080361;35;32751;-92
2022/04/22 23:07:12;;;;;;;;;;;;;;;10.14;77.40;98399.06;4119825;34;34311;-90
2022/04/22 23:09:43;;;;;;;;;;;;;;;10.13;76.97;98402.56;4152843;34;35279;-89
2022/04/22 23:12:13;;;;;;;;;;;;;;;10.14;77.52;98406.84;4157030;34;34124;-90
2022/04/22 23:14:45;;;;;;;;;;;;;;;10.56;75.78;98410.69;4150408;34;32779;-89
2022/04/22 23:17:14;;;;;;;;;;;;;;;10.89;74.73;98408.72;4158908;34;35027;-92
2022/04/22 23:19:44;;;;;;;;;;;;;;;11.15;73.09;98402.59;4158185;34;34156;-90
2022/04/22 23:22:21;;;;;;;;;;;;;;;11.30;72.54;98401.19;4180198;34;34968;-90
2022/04/22 23:30:58;;;;;;;;;;;;;;;11.05;74.03;98403.84;4188752;34;35447;-90
2022/04/22 23:33:45;;;;;;;;;;;;;;;11.11;73.68;98398.41;4193140;34;33466;-90
2022/04/22 23:36:21;;;;;;;;;;;;;;;11.42;72.40;98394.69;4190340;34;33935;-90
2022/04/22 23:38:52;;;;;;;;;;;;;;;10.96;73.77;98401.56;4195549;34;35356;-90
2022/04/22 23:41:24;;;;;;;;;;;;;;;11.13;72.95;98395.78;4204535;34;35123;-90
2022/04/22 23:43:57;;;;;;;;;;;;;;;11.45;72.00;98395.44;4201790;34;34923;-91
2022/04/22 23:46:43;;;;;;;;;;;;;;;11.42;71.98;98390.34;4195322;34;33348;-91
2022/04/22 23:56:37;;;;;;;;;;;;;;;11.52;70.62;98404.69;4172565;34;34863;-91
